createdAt,value
2023-02-03T00:01:06.386Z,0.34
2023-02-03T00:03:34.319Z,0.24
2023-02-03T00:06:02.822Z,0.28
2023-02-03T00:08:31.110Z,0.30
2023-02-03T00:11:02.333Z,0.35
2023-02-03T00:13:31.651Z,0.37
2023-02-03T00:16:01.936Z,0.38
2023-02-03T00:18:29.839Z,0.41
2023-02-03T00:20:57.745Z,0.44
2023-02-03T00:23:26.046Z,0.41
2023-02-03T00:25:54.528Z,0.43
2023-02-03T00:28:22.539Z,0.34
2023-02-03T00:30:54.213Z,0.36
2023-02-03T00:33:22.207Z,0.35
2023-02-03T00:35:50.359Z,0.25
2023-02-03T00:38:18.313Z,0.30
2023-02-03T00:40:53.345Z,0.35
2023-02-03T00:43:21.418Z,0.36
2023-02-03T00:45:49.504Z,0.39
2023-02-03T00:48:18.893Z,0.47
2023-02-03T00:50:47.557Z,0.49
2023-02-03T00:53:15.699Z,0.53
2023-02-03T00:55:44.211Z,0.51
2023-02-03T00:58:12.440Z,0.42
2023-02-03T01:00:40.419Z,0.43
2023-02-03T01:03:08.550Z,0.48
2023-02-03T01:05:38.226Z,0.49
2023-02-03T01:08:06.533Z,0.55
2023-02-03T01:10:34.523Z,0.52
2023-02-03T01:13:02.435Z,0.49
2023-02-03T01:15:30.482Z,0.48
2023-02-03T01:17:58.476Z,0.45
2023-02-03T01:20:26.753Z,0.43
2023-02-03T01:22:56.299Z,0.43
2023-02-03T01:25:24.300Z,0.49
2023-02-03T01:27:52.629Z,0.45
2023-02-03T01:30:20.835Z,0.52
2023-02-03T01:32:48.799Z,0.53
2023-02-03T01:35:16.792Z,0.44
2023-02-03T01:37:44.904Z,0.42
2023-02-03T01:40:14.731Z,0.48
2023-02-03T01:42:42.683Z,0.48
2023-02-03T01:45:13.459Z,0.48
2023-02-03T01:47:44.325Z,0.52
2023-02-03T01:50:14.929Z,0.46
2023-02-03T01:52:44.520Z,0.54
2023-02-03T01:55:14.456Z,0.62
2023-02-03T01:57:47.903Z,0.60
2023-02-03T02:00:16.033Z,0.58
2023-02-03T02:02:45.509Z,0.62
2023-02-03T02:05:16.472Z,0.57
2023-02-03T02:07:44.920Z,0.58
2023-02-03T02:10:13.154Z,0.62
2023-02-03T02:18:50.342Z,0.45
2023-02-03T02:21:24.605Z,0.49
2023-02-03T02:24:01.314Z,0.52
2023-02-03T02:26:47.232Z,0.54
2023-02-03T02:29:34.997Z,0.49
2023-02-03T02:32:17.017Z,0.50
2023-02-03T02:34:51.076Z,0.52
2023-02-03T02:37:24.298Z,0.52
2023-02-03T02:39:58.005Z,0.53
2023-02-03T02:42:30.399Z,0.55
2023-02-03T02:45:00.592Z,0.59
2023-02-03T02:47:30.016Z,0.63
2023-02-03T02:50:00.667Z,0.63
2023-02-03T02:52:31.197Z,0.56
2023-02-03T02:55:01.563Z,0.49
2023-02-03T02:57:32.897Z,0.47
2023-02-03T03:00:01.029Z,0.40
2023-02-03T03:02:35.167Z,0.48
2023-02-03T03:05:05.155Z,0.48
2023-02-03T03:07:37.486Z,0.49
2023-02-03T03:10:09.024Z,0.54
2023-02-03T03:12:39.041Z,0.52
2023-02-03T03:15:09.144Z,0.50
2023-02-03T03:17:41.701Z,0.57
2023-02-03T03:20:11.576Z,0.62
2023-02-03T03:22:43.310Z,0.63
2023-02-03T03:25:14.017Z,0.65
2023-02-03T03:27:45.849Z,0.57
2023-02-03T03:30:16.022Z,0.57
2023-02-03T03:32:46.285Z,0.63
2023-02-03T03:35:14.314Z,0.69
2023-02-03T03:37:44.927Z,0.72
2023-02-03T03:40:16.417Z,0.75
2023-02-03T03:42:47.517Z,0.75
2023-02-03T03:45:18.244Z,0.82
2023-02-03T03:47:51.347Z,0.82
2023-02-03T03:50:20.583Z,0.79
2023-02-03T03:52:50.831Z,0.81
2023-02-03T03:55:20.855Z,0.81
2023-02-03T03:57:53.293Z,0.90
2023-02-03T04:00:23.148Z,0.94
2023-02-03T04:02:54.196Z,0.95
2023-02-03T04:05:23.015Z,0.89
2023-02-03T04:07:50.963Z,0.87
2023-02-03T04:10:26.757Z,0.96
2023-02-03T04:12:54.884Z,1.00
2023-02-03T04:15:23.305Z,0.95
2023-02-03T04:17:52.687Z,0.90
2023-02-03T04:20:20.583Z,0.97
2023-02-03T04:22:49.053Z,1.01
2023-02-03T04:25:17.214Z,1.02
2023-02-03T04:27:45.354Z,1.01
2023-02-03T04:30:14.183Z,1.04
2023-02-03T04:32:42.529Z,1.01
2023-02-03T04:35:11.976Z,1.03
2023-02-03T04:37:39.943Z,1.13
2023-02-03T04:40:08.668Z,1.09
2023-02-03T04:42:38.986Z,1.12
2023-02-03T04:45:07.898Z,1.12
2023-02-03T04:47:36.124Z,1.07
2023-02-03T04:50:04.314Z,1.10
2023-02-03T04:52:34.057Z,1.12
2023-02-03T04:55:02.063Z,1.14
2023-02-03T04:57:31.018Z,1.15
2023-02-03T04:59:58.968Z,1.10
2023-02-03T05:02:26.890Z,1.14
2023-02-03T05:04:55.319Z,1.17
2023-02-03T05:07:23.351Z,1.21
2023-02-03T05:09:52.710Z,1.23
2023-02-03T05:12:20.990Z,1.20
2023-02-03T05:14:49.218Z,1.20
2023-02-03T05:17:17.194Z,1.19
2023-02-03T05:19:45.279Z,1.23
2023-02-03T05:25:22.479Z,1.15
2023-02-03T05:27:52.288Z,1.16
2023-02-03T05:30:20.580Z,1.24
2023-02-03T05:32:49.948Z,1.18
2023-02-03T05:35:17.938Z,1.25
2023-02-03T05:37:46.730Z,1.21
2023-02-03T05:40:32.238Z,1.28
2023-02-03T05:43:01.842Z,1.32
2023-02-03T05:45:30.003Z,1.36
2023-02-03T05:47:58.760Z,1.35
2023-02-03T05:50:28.036Z,1.37
2023-02-03T05:52:56.476Z,1.34
2023-02-03T05:55:24.720Z,1.36
2023-02-03T05:57:52.668Z,1.34
2023-02-03T06:00:22.922Z,1.30
2023-02-03T06:02:52.839Z,1.39
2023-02-03T06:05:21.004Z,1.45
2023-02-03T06:07:48.923Z,1.42
2023-02-03T06:10:17.761Z,1.45
2023-02-03T06:12:45.775Z,1.54
2023-02-03T06:15:13.836Z,1.44
2023-02-03T06:17:45.352Z,1.51
2023-02-03T06:20:14.125Z,1.58
2023-02-03T06:22:42.720Z,1.58
2023-02-03T06:25:13.038Z,1.65
2023-02-03T06:27:41.454Z,1.72
2023-02-03T06:30:10.259Z,1.72
2023-02-03T06:32:38.323Z,1.72
2023-02-03T06:35:08.190Z,1.75
2023-02-03T06:37:37.753Z,1.82
2023-02-03T06:40:06.355Z,1.85
2023-02-03T06:42:34.877Z,1.88
2023-02-03T06:45:03.219Z,1.90
2023-02-03T06:47:31.612Z,1.94
2023-02-03T06:49:59.657Z,1.92
2023-02-03T06:52:29.180Z,2.02
2023-02-03T06:54:57.281Z,2.10
2023-02-03T06:57:25.370Z,2.10
2023-02-03T06:59:53.488Z,2.18
2023-02-03T07:02:21.721Z,2.24
2023-02-03T07:04:50.026Z,2.31
2023-02-03T07:07:18.233Z,2.37
2023-02-03T07:09:47.816Z,2.38
2023-02-03T07:12:15.850Z,2.30
2023-02-03T07:14:44.067Z,2.29
2023-02-03T07:17:12.073Z,2.31
2023-02-03T07:19:39.993Z,2.12
2023-02-03T07:22:08.137Z,2.27
2023-02-03T07:24:36.128Z,2.38
2023-02-03T07:27:05.744Z,2.45
2023-02-03T07:29:33.726Z,2.49
2023-02-03T07:32:02.946Z,2.70
2023-02-03T07:34:31.149Z,2.72
2023-02-03T07:36:59.341Z,2.52
2023-02-03T07:39:27.567Z,2.47
2023-02-03T07:41:55.616Z,2.35
2023-02-03T07:44:25.063Z,2.46
2023-02-03T07:46:53.198Z,2.58
2023-02-03T07:49:21.145Z,2.73
2023-02-03T07:51:49.314Z,2.80
2023-02-03T07:54:17.222Z,2.83
2023-02-03T07:56:45.337Z,2.88
2023-02-03T07:59:14.010Z,2.96
2023-02-03T08:01:43.647Z,3.00
2023-02-03T08:04:16.014Z,2.97
2023-02-03T08:06:44.315Z,3.01
2023-02-03T08:09:12.345Z,3.02
2023-02-03T08:11:40.490Z,3.06
2023-02-03T08:14:08.582Z,3.11
2023-02-03T08:16:36.855Z,3.23
2023-02-03T08:19:06.481Z,3.12
2023-02-03T08:21:34.458Z,3.08
2023-02-03T08:24:02.647Z,3.02
2023-02-03T08:26:30.792Z,2.92
2023-02-03T08:32:17.263Z,2.93
2023-02-03T08:34:47.106Z,2.90
2023-02-03T08:37:16.694Z,2.83
2023-02-03T08:39:45.263Z,2.75
2023-02-03T08:42:13.377Z,2.70
2023-02-03T08:44:41.590Z,2.83
2023-02-03T08:47:09.922Z,3.00
2023-02-03T08:49:39.665Z,3.15
2023-02-03T08:52:10.478Z,3.22
2023-02-03T08:54:38.736Z,3.31
2023-02-03T08:57:06.817Z,3.36
2023-02-03T08:59:36.297Z,3.42
2023-02-03T09:02:04.866Z,3.28
2023-02-03T09:04:34.023Z,3.33
2023-02-03T09:07:04.529Z,3.25
2023-02-03T09:09:34.606Z,3.18
2023-02-03T09:12:05.547Z,3.15
2023-02-03T09:14:34.407Z,3.14
2023-02-03T09:17:03.443Z,3.24
2023-02-03T09:19:31.381Z,3.50
2023-02-03T09:21:59.345Z,3.73
2023-02-03T09:24:27.712Z,3.84
2023-02-03T09:26:57.365Z,4.03
2023-02-03T09:29:25.589Z,4.07
2023-02-03T09:31:54.190Z,3.90
2023-02-03T09:34:22.431Z,3.63
2023-02-03T09:36:51.481Z,3.49
2023-02-03T09:39:19.744Z,3.65
2023-02-03T09:42:02.526Z,3.78
2023-02-03T09:44:37.688Z,3.79
2023-02-03T09:47:11.971Z,3.70
2023-02-03T09:49:41.671Z,3.78
2023-02-03T09:52:13.265Z,3.81
2023-02-03T09:54:44.887Z,3.83
2023-02-03T09:57:17.181Z,3.82
2023-02-03T09:59:46.528Z,3.86
2023-02-03T10:02:34.000Z,3.88
2023-02-03T10:05:07.784Z,3.92
2023-02-03T10:07:43.718Z,4.08
2023-02-03T10:10:15.955Z,4.15
2023-02-03T10:12:48.562Z,4.19
2023-02-03T10:15:31.487Z,3.91
2023-02-03T10:18:03.815Z,3.85
2023-02-03T10:20:37.151Z,4.04
2023-02-03T10:23:08.299Z,4.17
2023-02-03T10:25:42.276Z,4.25
2023-02-03T10:28:16.411Z,4.25
2023-02-03T10:30:48.158Z,4.22
2023-02-03T10:33:18.351Z,4.11
2023-02-03T10:35:50.557Z,3.90
2023-02-03T10:38:24.171Z,3.77
2023-02-03T10:40:53.080Z,3.77
2023-02-03T10:43:38.854Z,3.70
2023-02-03T10:46:06.924Z,3.65
2023-02-03T10:48:36.960Z,3.63
2023-02-03T10:51:05.647Z,3.72
2023-02-03T10:53:34.760Z,3.72
2023-02-03T10:56:04.424Z,3.57
2023-02-03T10:58:34.693Z,3.58
2023-02-03T11:01:07.667Z,3.62
2023-02-03T11:03:38.263Z,3.53
2023-02-03T11:06:09.485Z,3.55
2023-02-03T11:08:38.878Z,3.43
2023-02-03T11:11:08.295Z,3.50
2023-02-03T11:13:36.809Z,3.50
2023-02-03T11:16:06.452Z,3.53
2023-02-03T11:18:49.473Z,3.62
2023-02-03T11:21:20.708Z,3.70
2023-02-03T11:23:54.660Z,3.83
2023-02-03T11:26:24.563Z,3.93
2023-02-03T11:28:54.385Z,4.09
2023-02-03T11:34:19.032Z,4.33
2023-02-03T11:36:48.509Z,4.43
2023-02-03T11:39:26.684Z,4.36
2023-02-03T11:41:55.238Z,4.33
2023-02-03T11:44:26.106Z,4.48
2023-02-03T11:46:56.606Z,4.38
2023-02-03T11:52:26.003Z,4.52
2023-02-03T11:54:57.201Z,4.47
2023-02-03T11:57:32.284Z,4.40
2023-02-03T12:00:11.238Z,4.43
2023-02-03T12:02:53.495Z,4.39
2023-02-03T12:05:34.340Z,4.40
2023-02-03T12:08:09.818Z,4.35
2023-02-03T12:10:43.754Z,4.28
2023-02-03T12:13:20.362Z,4.21
2023-02-03T12:15:55.802Z,4.02
2023-02-03T12:18:34.733Z,4.00
2023-02-03T12:21:08.934Z,3.97
2023-02-03T12:23:45.383Z,4.01
2023-02-03T12:26:19.798Z,3.92
2023-02-03T12:28:51.609Z,3.85
2023-02-03T12:31:25.045Z,3.86
2023-02-03T12:33:56.573Z,3.81
2023-02-03T12:36:28.273Z,3.83
2023-02-03T12:39:00.614Z,3.79
2023-02-03T12:41:31.393Z,3.89
2023-02-03T12:44:02.447Z,3.82
2023-02-03T12:46:32.512Z,3.75
2023-02-03T12:49:04.848Z,3.65
2023-02-03T12:51:37.312Z,3.63
2023-02-03T12:54:12.686Z,3.59
2023-02-03T12:56:43.231Z,3.46
2023-02-03T12:59:16.218Z,3.42
2023-02-03T13:01:46.794Z,3.45
2023-02-03T13:04:20.319Z,3.43
2023-02-03T13:06:52.224Z,3.34
2023-02-03T13:09:26.837Z,3.29
2023-02-03T13:11:57.646Z,3.25
2023-02-03T13:14:29.959Z,3.10
2023-02-03T13:17:01.601Z,3.14
2023-02-03T13:19:35.214Z,3.14
2023-02-03T13:22:03.436Z,3.09
2023-02-03T13:24:33.048Z,3.03
2023-02-03T13:27:11.517Z,2.94
2023-02-03T13:29:50.939Z,2.80
2023-02-03T13:32:29.927Z,2.73
2023-02-03T13:35:21.569Z,2.79
2023-02-03T13:38:07.396Z,2.72
2023-02-03T13:40:42.629Z,2.54
2023-02-03T13:43:17.395Z,2.52
2023-02-03T13:45:50.919Z,2.29
2023-02-03T13:48:20.746Z,2.31
2023-02-03T13:50:49.685Z,2.32
2023-02-03T13:53:19.177Z,2.26
2023-02-03T13:55:56.643Z,2.13
2023-02-03T13:58:26.673Z,2.06
2023-02-03T14:01:03.702Z,2.00
2023-02-03T14:03:47.797Z,1.92
2023-02-03T14:06:34.401Z,1.92
2023-02-03T14:09:02.501Z,1.89
2023-02-03T14:11:48.335Z,1.89
2023-02-03T14:14:34.966Z,1.87
2023-02-03T14:17:03.196Z,1.84
2023-02-03T14:19:58.359Z,1.84
2023-02-03T14:22:27.687Z,1.89
2023-02-03T14:24:57.727Z,1.87
2023-02-03T14:27:30.099Z,1.85
2023-02-03T14:32:52.203Z,1.71
2023-02-03T14:35:21.450Z,1.71
2023-02-03T14:37:54.404Z,1.71
2023-02-03T14:40:30.534Z,1.67
2023-02-03T14:43:12.237Z,1.65
2023-02-03T14:45:51.857Z,1.70
2023-02-03T14:48:36.240Z,1.59
2023-02-03T14:51:09.518Z,1.58
2023-02-03T14:53:46.148Z,1.55
2023-02-03T14:56:19.119Z,1.52
2023-02-03T14:58:51.658Z,1.57
2023-02-03T15:01:29.142Z,1.52
2023-02-03T15:04:21.879Z,1.52
2023-02-03T15:06:50.825Z,1.56
2023-02-03T15:09:23.458Z,1.55
2023-02-03T15:11:51.615Z,1.54
2023-02-03T15:14:25.115Z,1.54
2023-02-03T15:16:57.689Z,1.57
2023-02-03T15:19:27.128Z,1.58
2023-02-03T15:21:55.259Z,1.60
2023-02-03T15:24:26.018Z,1.50
2023-02-03T15:26:54.875Z,1.49
2023-02-03T15:29:26.583Z,1.44
2023-02-03T15:31:58.631Z,1.39
2023-02-03T15:34:30.031Z,1.30
2023-02-03T15:37:00.912Z,1.35
2023-02-03T15:39:37.575Z,1.41
2023-02-03T15:42:08.635Z,1.40
2023-02-03T15:44:41.470Z,1.49
2023-02-03T15:47:20.355Z,1.50
2023-02-03T15:49:52.079Z,1.54
2023-02-03T15:52:22.112Z,1.50
2023-02-03T15:54:54.863Z,1.51
2023-02-03T15:57:24.722Z,1.53
2023-02-03T15:59:55.072Z,1.55
2023-02-03T16:02:23.773Z,1.53
2023-02-03T16:04:52.046Z,1.55
2023-02-03T16:07:22.692Z,1.51
2023-02-03T16:09:53.750Z,1.51
2023-02-03T16:12:24.754Z,1.56
2023-02-03T16:14:53.151Z,1.50
2023-02-03T16:17:27.680Z,1.52
2023-02-03T16:20:16.947Z,1.50
2023-02-03T16:22:45.957Z,1.51
2023-02-03T16:25:14.514Z,1.50
2023-02-03T16:27:47.168Z,1.49
2023-02-03T16:30:42.793Z,1.51
2023-02-03T16:33:38.710Z,1.51
2023-02-03T16:36:29.776Z,1.53
2023-02-03T16:39:16.422Z,1.45
2023-02-03T16:42:01.810Z,1.51
2023-02-03T16:44:47.247Z,1.54
2023-02-03T16:47:40.782Z,1.55
2023-02-03T16:50:38.241Z,1.56
2023-02-03T16:53:07.443Z,1.48
2023-02-03T16:55:35.618Z,1.44
2023-02-03T16:58:03.557Z,1.42
2023-02-03T17:00:32.102Z,1.37
2023-02-03T17:03:00.224Z,1.25
2023-02-03T17:05:30.052Z,1.16
2023-02-03T17:07:58.253Z,1.15
2023-02-03T17:10:26.541Z,1.19
2023-02-03T17:12:54.522Z,1.06
2023-02-03T17:15:22.449Z,0.95
2023-02-03T17:17:50.391Z,1.05
2023-02-03T17:20:18.640Z,1.12
2023-02-03T17:22:51.740Z,1.09
2023-02-03T17:25:19.811Z,1.10
2023-02-03T17:30:56.823Z,1.02
2023-02-03T17:33:25.013Z,1.07
2023-02-03T17:36:01.156Z,1.09
2023-02-03T17:38:31.636Z,1.12
2023-02-03T17:54:52.232Z,1.07
2023-02-03T17:57:20.404Z,1.10
2023-02-03T17:59:48.891Z,1.11
2023-02-03T18:02:36.081Z,1.10
2023-02-03T18:05:07.478Z,1.12
2023-02-03T18:08:06.027Z,1.11
2023-02-03T18:10:56.441Z,1.18
2023-02-03T18:13:26.274Z,1.17
2023-02-03T18:15:56.982Z,1.16
2023-02-03T18:18:26.142Z,1.20
2023-02-03T18:20:54.351Z,1.23
2023-02-03T18:23:22.404Z,1.20
2023-02-03T18:25:54.147Z,1.20
2023-02-03T18:28:24.083Z,1.17
2023-02-03T18:30:52.249Z,1.20
2023-02-03T18:33:20.171Z,1.24
2023-02-03T18:35:50.816Z,1.19
2023-02-03T18:38:18.814Z,1.16
2023-02-03T18:40:46.827Z,1.20
2023-02-03T18:43:14.789Z,1.24
2023-02-03T18:45:44.415Z,1.24
2023-02-03T18:48:12.378Z,1.30
2023-02-03T18:50:42.398Z,1.33
2023-02-03T18:53:11.296Z,1.35
2023-02-03T18:55:41.714Z,1.36
2023-02-03T18:58:09.796Z,1.35
2023-02-03T19:00:37.814Z,1.22
2023-02-03T19:03:07.945Z,1.19
2023-02-03T19:05:35.924Z,1.25
2023-02-03T19:08:04.114Z,1.26
2023-02-03T19:10:32.628Z,1.29
2023-02-03T19:13:03.498Z,1.32
2023-02-03T19:15:31.531Z,1.38
2023-02-03T19:17:59.632Z,1.42
2023-02-03T19:20:29.283Z,1.28
2023-02-03T19:22:57.344Z,1.26
2023-02-03T19:25:25.545Z,1.28
2023-02-03T19:27:53.465Z,1.35
2023-02-03T19:30:22.244Z,1.34
2023-02-03T19:32:52.090Z,1.35
2023-02-03T19:35:20.099Z,1.36
2023-02-03T19:37:49.589Z,1.39
2023-02-03T19:40:17.604Z,1.34
2023-02-03T19:42:45.724Z,1.30
2023-02-03T19:45:13.782Z,1.20
2023-02-03T19:47:41.851Z,1.25
2023-02-03T19:50:10.285Z,1.21
2023-02-03T19:52:38.351Z,1.25
2023-02-03T19:55:08.081Z,1.27
2023-02-03T19:57:36.040Z,1.28
2023-02-03T20:00:04.411Z,1.25
2023-02-03T20:02:32.368Z,1.23
2023-02-03T20:05:00.667Z,1.24
2023-02-03T20:07:35.611Z,1.24
2023-02-03T20:10:06.562Z,1.17
2023-02-03T20:12:36.084Z,1.14
2023-02-03T20:15:04.134Z,1.10
2023-02-03T20:17:32.052Z,1.09
2023-02-03T20:20:00.202Z,1.13
2023-02-03T20:22:28.299Z,1.11
2023-02-03T20:24:56.227Z,1.12
2023-02-03T20:27:24.317Z,1.04
2023-02-03T20:32:52.131Z,1.09
2023-02-03T20:35:20.579Z,1.11
2023-02-03T20:37:48.506Z,1.07
2023-02-03T20:40:18.434Z,1.05
2023-02-03T20:42:47.532Z,0.99
2023-02-03T20:45:15.945Z,0.98
2023-02-03T20:47:44.044Z,0.86
2023-02-03T20:50:17.099Z,0.72
2023-02-03T20:52:45.342Z,0.61
2023-02-03T20:55:14.370Z,0.66
2023-02-03T20:57:42.646Z,0.58
2023-02-03T21:00:17.974Z,0.62
2023-02-03T21:03:17.943Z,0.51
2023-02-03T21:05:47.444Z,0.54
2023-02-03T21:08:15.672Z,0.55
2023-02-03T21:10:49.827Z,0.56
2023-02-03T21:13:20.795Z,0.60
2023-02-03T21:15:49.783Z,0.59
2023-02-03T21:18:29.756Z,0.65
2023-02-03T21:20:59.173Z,0.72
2023-02-03T21:23:29.279Z,0.70
2023-02-03T21:25:57.248Z,0.77
2023-02-03T21:28:26.760Z,0.78
2023-02-03T21:30:54.951Z,0.84
2023-02-03T21:33:30.247Z,0.89
2023-02-03T21:35:59.832Z,0.94
2023-02-03T21:38:31.010Z,0.97
2023-02-03T21:40:59.661Z,0.96
2023-02-03T21:43:27.611Z,0.98
2023-02-03T21:45:55.688Z,0.96
2023-02-03T21:48:32.210Z,0.94
2023-02-03T21:51:05.964Z,0.88
2023-02-03T21:53:35.894Z,0.87
2023-02-03T21:56:15.770Z,0.88
2023-02-03T21:58:44.826Z,0.86
2023-02-03T22:01:16.781Z,0.88
2023-02-03T22:03:47.697Z,0.89
2023-02-03T22:06:27.939Z,0.96
2023-02-03T22:08:56.658Z,0.97
2023-02-03T22:11:25.412Z,1.02
2023-02-03T22:13:53.488Z,1.02
2023-02-03T22:16:21.697Z,1.03
2023-02-03T22:18:50.267Z,1.04
2023-02-03T22:21:18.395Z,0.97
2023-02-03T22:23:48.089Z,1.03
2023-02-03T22:26:16.650Z,1.04
2023-02-03T22:28:44.716Z,1.06
2023-02-03T22:31:13.269Z,1.08
2023-02-03T22:33:42.090Z,1.06
2023-02-03T22:36:10.833Z,1.06
2023-02-03T22:38:39.927Z,1.06
2023-02-03T22:41:11.983Z,1.09
2023-02-03T22:43:40.608Z,1.11
2023-02-03T22:46:09.149Z,1.14
2023-02-03T22:48:37.170Z,1.14
2023-02-03T22:51:05.382Z,1.15
2023-02-03T22:53:34.921Z,1.17
2023-02-03T22:56:02.922Z,1.18
2023-02-03T22:58:32.317Z,1.17
2023-02-03T23:01:00.406Z,1.21
2023-02-03T23:03:32.178Z,1.24
2023-02-03T23:06:00.347Z,1.26
2023-02-03T23:08:28.435Z,1.25
2023-02-03T23:10:57.118Z,1.24
2023-02-03T23:13:25.094Z,1.25
2023-02-03T23:15:54.514Z,1.18
2023-02-03T23:18:22.577Z,1.24
2023-02-03T23:20:50.722Z,1.24
2023-02-03T23:23:18.641Z,1.25
2023-02-03T23:25:46.669Z,1.26
2023-02-03T23:28:14.608Z,1.28
2023-02-03T23:30:42.779Z,1.20
2023-02-03T23:33:12.287Z,1.20
2023-02-03T23:35:45.720Z,1.20
2023-02-03T23:38:13.965Z,1.21
2023-02-03T23:40:41.805Z,1.21
2023-02-03T23:43:34.722Z,1.20
2023-02-03T23:46:02.720Z,1.21
2023-02-03T23:48:32.247Z,1.23
2023-02-03T23:51:00.221Z,1.28
2023-02-03T23:53:28.635Z,1.29
2023-02-03T23:55:56.652Z,1.30
2023-02-03T23:58:24.771Z,1.25
